Time;durP1;ratioP1;P1;durP2;ratioP2;P2;SDS_P1;SDS_P2;PMS_P1;PMS_P2;Temp;Humidity;BMP_temperature;BMP_pressure;BME280_temperature;BME280_humidity;BME280_pressure;Samples;Min_cycle;Max_cycle;Signal;HPM_P1;HPM_P2
2023/10/12 00:01:39;;;;;;;;;;;;;;;17.89;46.73;101824.22;4960596;29;1098;-45
2023/10/12 00:04:11;;;;;;;;;;;;;;;17.37;46.56;101836.47;4960740;29;1100;-50
2023/10/12 00:06:37;;;;;;;;;;;;;;;18.50;45.92;101834.28;4952372;29;947;-48
2023/10/12 00:09:16;;;;;;;;;;;;;;;17.44;47.17;101826.94;4953957;28;1915;-45
2023/10/12 00:11:46;;;;;;;;;;;;;;;17.21;46.43;101824.44;4960897;29;1180;-47
2023/10/12 00:14:14;;;;;;;;;;;;;;;17.05;45.63;101826.91;4960039;29;1093;-48
2023/10/12 00:16:42;;;;;;;;;;;;;;;18.12;46.13;101821.22;4960478;29;1009;-51
2023/10/12 00:19:11;;;;;;;;;;;;;;;17.46;46.72;101815.72;4960103;29;1111;-44
2023/10/12 00:21:37;;;;;;;;;;;;;;;17.23;46.25;101814.81;4959876;29;1069;-46
2023/10/12 00:24:02;;;;;;;;;;;;;;;17.03;45.94;101818.13;4955180;29;1086;-46
2023/10/12 00:26:31;;;;;;;;;;;;;;;17.07;45.60;101821.19;4952064;29;1112;-45
2023/10/12 00:28:57;;;;;;;;;;;;;;;17.69;46.40;101817.38;4960054;29;2045;-47
2023/10/12 00:31:22;;;;;;;;;;;;;;;17.15;46.46;101817.19;4958707;29;1219;-45
2023/10/12 00:33:51;;;;;;;;;;;;;;;17.08;46.39;101807.22;4954263;29;1065;-45
2023/10/12 00:36:21;;;;;;;;;;;;;;;17.58;46.65;101804.59;4951457;29;1162;-46
2023/10/12 00:38:47;;;;;;;;;;;;;;;16.99;46.60;101802.38;4974465;28;1226;-47
2023/10/12 00:41:17;;;;;;;;;;;;;;;18.29;45.73;101804.59;4959876;29;1065;-46
2023/10/12 00:44:07;;;;;;;;;;;;;;;17.40;46.64;101808.47;4948007;29;999;-46
2023/10/12 00:51:40;;;;;;;;;;;;;;;17.23;46.80;101794.75;4958150;29;1109;-45
2023/10/12 00:54:10;;;;;;;;;;;;;;;17.08;46.10;101792.63;4959252;29;1173;-47
2023/10/12 00:56:36;;;;;;;;;;;;;;;17.37;46.53;101796.06;4959464;29;1216;-41
2023/10/12 00:59:03;;;;;;;;;;;;;;;17.82;46.65;101794.16;4959565;29;1052;-46
2023/10/12 01:01:31;;;;;;;;;;;;;;;17.32;46.62;101796.00;4959088;29;1148;-43
2023/10/12 01:03:56;;;;;;;;;;;;;;;18.10;46.52;101790.38;4959514;29;1082;-44
2023/10/12 01:06:28;;;;;;;;;;;;;;;17.62;46.88;101794.75;4954848;29;909;-45
2023/10/12 01:08:57;;;;;;;;;;;;;;;17.14;46.56;101788.03;4974234;28;1974;-47
2023/10/12 01:11:33;;;;;;;;;;;;;;;17.88;46.75;101787.63;4958930;28;1243;-48
2023/10/12 01:16:29;;;;;;;;;;;;;;;17.08;45.88;101789.88;4958505;29;1120;-44
2023/10/12 01:19:00;;;;;;;;;;;;;;;17.69;46.37;101792.63;4958694;29;1012;-48
2023/10/12 01:21:28;;;;;;;;;;;;;;;17.51;46.92;101787.44;4959167;28;1054;-48
2023/10/12 01:24:00;;;;;;;;;;;;;;;17.11;46.42;101783.91;4958335;29;1062;-45
2023/10/12 01:26:26;;;;;;;;;;;;;;;16.96;45.92;101789.97;4959149;29;1141;-47
2023/10/12 01:28:55;;;;;;;;;;;;;;;18.31;45.58;101796.06;4957620;29;1981;-49
2023/10/12 01:31:30;;;;;;;;;;;;;;;17.36;46.90;101783.41;4958697;29;850;-45
2023/10/12 01:33:56;;;;;;;;;;;;;;;17.15;46.38;101789.69;4957345;29;1080;-47
2023/10/12 01:36:22;;;;;;;;;;;;;;;17.53;46.50;101779.75;4957358;29;1066;-44
2023/10/12 01:39:11;;;;;;;;;;;;;;;17.62;46.69;101786.47;4958819;29;1042;-47
2023/10/12 01:41:42;;;;;;;;;;;;;;;17.12;46.51;101796.53;4958431;29;1125;-47
2023/10/12 01:44:11;;;;;;;;;;;;;;;17.22;46.08;101793.09;4957658;29;1240;-46
2023/10/12 01:46:40;;;;;;;;;;;;;;;17.60;46.55;101789.50;4958785;29;1102;-47
2023/10/12 01:49:09;;;;;;;;;;;;;;;17.09;46.59;101786.03;4957518;29;1902;-43
2023/10/12 01:51:44;;;;;;;;;;;;;;;18.07;46.09;101785.38;4958559;29;1061;-47
2023/10/12 01:54:12;;;;;;;;;;;;;;;17.44;46.65;101785.69;4958587;29;1192;-48
2023/10/12 01:56:38;;;;;;;;;;;;;;;17.05;46.32;101788.44;4946153;29;987;-48
2023/10/12 01:59:07;;;;;;;;;;;;;;;17.37;46.49;101782.31;4958368;29;1128;-47
2023/10/12 02:01:41;;;;;;;;;;;;;;;17.67;46.72;101781.06;4957198;29;1350;-50
2023/10/12 02:04:07;;;;;;;;;;;;;;;17.20;46.29;101782.34;4957003;29;1206;-50
2023/10/12 02:06:33;;;;;;;;;;;;;;;17.06;45.57;101779.13;4972799;28;1357;-49
2023/10/12 02:09:10;;;;;;;;;;;;;;;17.58;46.19;101774.34;4958290;29;2081;-47
2023/10/12 02:11:46;;;;;;;;;;;;;;;17.40;46.67;101784.56;4957274;29;1586;-51
2023/10/12 02:14:12;;;;;;;;;;;;;;;17.13;46.21;101789.94;4957151;29;1264;-49
2023/10/12 02:16:38;;;;;;;;;;;;;;;18.04;45.90;101782.31;4958344;29;1057;-49
2023/10/12 02:19:04;;;;;;;;;;;;;;;17.24;46.51;101774.44;4956800;29;1078;-44
2023/10/12 02:21:33;;;;;;;;;;;;;;;17.15;45.79;101787.78;4957234;29;1275;-48
2023/10/12 02:24:11;;;;;;;;;;;;;;;17.28;45.86;101778.34;4957994;29;1202;-48
2023/10/12 02:31:31;;;;;;;;;;;;;;;17.71;46.73;101773.97;4943040;29;912;-49
2023/10/12 02:34:00;;;;;;;;;;;;;;;17.56;46.64;101782.84;4961680;29;1080;-48
2023/10/12 02:36:26;;;;;;;;;;;;;;;17.17;46.19;101774.63;4960749;29;1111;-45
2023/10/12 02:38:53;;;;;;;;;;;;;;;17.08;45.39;101767.88;4960896;29;1309;-47
2023/10/12 02:41:24;;;;;;;;;;;;;;;18.26;45.46;101774.84;4957910;29;1219;-48
2023/10/12 02:44:11;;;;;;;;;;;;;;;17.35;46.89;101770.75;4960398;29;1547;-46
2023/10/12 02:46:48;;;;;;;;;;;;;;;17.02;46.14;101769.72;4961938;29;1089;-48
2023/10/12 02:49:13;;;;;;;;;;;;;;;17.47;46.11;101773.38;4961500;29;2005;-45
2023/10/12 02:51:40;;;;;;;;;;;;;;;17.40;46.53;101772.72;4948988;29;1311;-45
2023/10/12 02:54:05;;;;;;;;;;;;;;;17.06;46.33;101770.06;4959977;29;1154;-45
2023/10/12 02:56:31;;;;;;;;;;;;;;;16.96;45.75;101770.75;4961352;29;1192;-46
2023/10/12 02:59:02;;;;;;;;;;;;;;;17.83;46.01;101775.75;4961788;29;1100;-48
2023/10/12 03:01:29;;;;;;;;;;;;;;;17.12;46.50;101779.22;4961448;29;1059;-46
2023/10/12 03:03:56;;;;;;;;;;;;;;;17.02;45.91;101775.22;4961023;29;1128;-47
2023/10/12 03:06:23;;;;;;;;;;;;;;;16.87;45.16;101766.72;4961220;29;1043;-43
2023/10/12 03:09:36;;;;;;;;;;;;;;;18.09;45.58;101772.19;4961099;29;1902;-47
2023/10/12 03:11:42;;;;;;;;;;;;;;;17.16;46.59;101772.94;4952373;29;1269;-45
2023/10/12 03:14:15;;;;;;;;;;;;;;;16.96;45.63;101769.91;4959710;29;1320;-45
2023/10/12 03:16:44;;;;;;;;;;;;;;;17.34;45.92;101769.06;4960997;29;1092;-48
2023/10/12 03:19:25;;;;;;;;;;;;;;;17.67;46.29;101764.56;4960794;29;1073;-44
2023/10/12 03:21:51;;;;;;;;;;;;;;;17.13;46.28;101767.16;4961495;29;1096;-47
2023/10/12 03:24:17;;;;;;;;;;;;;;;17.88;46.14;101762.00;4960133;29;1101;-46
2023/10/12 03:27:10;;;;;;;;;;;;;;;17.34;46.59;101774.56;4959990;29;1166;-46
2023/10/12 03:29:34;;;;;;;;;;;;;;;17.60;46.50;101773.00;4961151;29;1898;-46
2023/10/12 03:32:00;;;;;;;;;;;;;;;17.97;46.11;101766.00;4960850;29;1140;-48
2023/10/12 03:37:03;;;;;;;;;;;;;;;17.12;45.73;101770.97;4960313;28;1278;-44
2023/10/12 03:39:31;;;;;;;;;;;;;;;17.22;46.13;101765.59;4960654;29;1120;-52
2023/10/12 03:44:49;;;;;;;;;;;;;;;17.24;46.23;101753.28;4952380;29;1010;-52
2023/10/12 03:47:16;;;;;;;;;;;;;;;16.89;46.02;101764.59;4948591;29;1018;-51
2023/10/12 03:49:57;;;;;;;;;;;;;;;17.99;46.16;101769.31;4960851;29;1902;-52
2023/10/12 03:52:39;;;;;;;;;;;;;;;17.25;46.99;101754.94;4960641;29;1129;-47
2023/10/12 04:05:16;;;;;;;;;;;;;;;16.99;46.23;101767.50;4951117;29;2358;-53
2023/10/12 04:18:33;;;;;;;;;;;;;;;17.27;46.48;101771.19;4958816;28;1264;-50
2023/10/12 04:20:59;;;;;;;;;;;;;;;17.50;46.79;101769.28;4947231;28;1276;-52
2023/10/12 04:28:41;;;;;;;;;;;;;;;17.71;46.46;101757.44;4959997;29;1914;-49
2023/10/12 04:33:51;;;;;;;;;;;;;;;17.03;46.34;101774.16;4970212;28;1084;-51
2023/10/12 04:36:44;;;;;;;;;;;;;;;17.91;45.11;101769.81;4959804;28;1280;-49
2023/10/12 04:46:58;;;;;;;;;;;;;;;17.06;47.03;101762.66;4958224;29;1006;-50
2023/10/12 04:54:49;;;;;;;;;;;;;;;16.75;47.73;101764.09;4952388;28;971;-48
2023/10/12 04:57:15;;;;;;;;;;;;;;;16.58;48.31;101766.84;4952753;29;1065;-48
2023/10/12 04:59:50;;;;;;;;;;;;;;;16.51;48.28;101772.47;4959509;29;1053;-50
2023/10/12 05:02:28;;;;;;;;;;;;;;;16.44;48.56;101771.81;4958410;29;1142;-50
2023/10/12 05:09:51;;;;;;;;;;;;;;;16.87;47.91;101763.97;4958498;28;1941;-51
2023/10/12 05:12:16;;;;;;;;;;;;;;;17.16;46.91;101769.38;4956090;29;2576;-48
2023/10/12 05:14:42;;;;;;;;;;;;;;;16.65;48.06;101767.50;4950135;28;1315;-51
2023/10/12 05:17:11;;;;;;;;;;;;;;;16.45;48.73;101770.72;4958227;28;1082;-48
2023/10/12 05:19:36;;;;;;;;;;;;;;;16.39;48.83;101769.78;4958622;28;1279;-50
2023/10/12 05:22:02;;;;;;;;;;;;;;;16.44;49.02;101780.06;4958472;28;1136;-51
2023/10/12 05:24:27;;;;;;;;;;;;;;;17.49;46.20;101776.69;4958954;29;1077;-49
2023/10/12 05:27:09;;;;;;;;;;;;;;;16.86;47.75;101773.31;4945628;29;1045;-48
2023/10/12 05:29:38;;;;;;;;;;;;;;;16.53;48.58;101772.22;4958531;29;1906;-45
2023/10/12 05:32:18;;;;;;;;;;;;;;;16.37;49.08;101773.91;4949883;29;1164;-47
2023/10/12 05:39:47;;;;;;;;;;;;;;;16.76;48.52;101780.31;4958387;29;1050;-49
2023/10/12 05:42:14;;;;;;;;;;;;;;;16.57;49.33;101771.47;4951551;29;2642;-48
2023/10/12 05:44:43;;;;;;;;;;;;;;;16.48;49.64;101774.88;4956228;29;1120;-48
2023/10/12 05:47:11;;;;;;;;;;;;;;;16.29;50.15;101783.34;4954032;29;1223;-46
2023/10/12 05:49:44;;;;;;;;;;;;;;;17.59;47.53;101787.00;4950479;29;1986;-47
2023/10/12 05:52:10;;;;;;;;;;;;;;;17.03;48.41;101790.63;4957829;29;1218;-47
2023/10/12 05:54:38;;;;;;;;;;;;;;;16.74;49.38;101787.94;4955854;29;1070;-47
2023/10/12 05:57:07;;;;;;;;;;;;;;;16.53;49.66;101786.78;4958559;28;1033;-47
2023/10/12 05:59:32;;;;;;;;;;;;;;;16.40;50.08;101790.69;4957408;29;1038;-50
2023/10/12 06:02:01;;;;;;;;;;;;;;;16.69;49.59;101796.13;4952222;29;1062;-44
2023/10/12 06:04:27;;;;;;;;;;;;;;;17.37;47.87;101798.81;4951435;29;1066;-47
2023/10/12 06:06:52;;;;;;;;;;;;;;;16.80;49.22;101807.25;4956889;28;994;-48
2023/10/12 06:09:20;;;;;;;;;;;;;;;16.58;49.76;101789.63;4953540;29;1914;-49
2023/10/12 06:11:47;;;;;;;;;;;;;;;16.45;49.93;101800.09;4957705;29;2382;-49
2023/10/12 06:14:14;;;;;;;;;;;;;;;17.52;47.30;101794.63;4952652;29;1438;-48
2023/10/12 06:16:40;;;;;;;;;;;;;;;16.92;48.83;101800.63;4952409;28;1324;-48
2023/10/12 06:19:26;;;;;;;;;;;;;;;16.60;49.51;101800.34;4953609;29;1092;-48
2023/10/12 06:21:51;;;;;;;;;;;;;;;16.61;49.67;101799.28;4938878;29;1050;-46
2023/10/12 06:24:41;;;;;;;;;;;;;;;17.59;47.31;101801.56;4938702;29;1110;-48
2023/10/12 06:29:48;;;;;;;;;;;;;;;16.64;49.63;101798.78;4962341;28;1902;-48
2023/10/12 06:32:19;;;;;;;;;;;;;;;16.49;49.97;101807.56;4951930;29;1077;-50
2023/10/12 06:34:45;;;;;;;;;;;;;;;17.60;47.42;101796.94;4964953;28;1248;-48
2023/10/12 06:42:39;;;;;;;;;;;;;;;16.56;49.79;101796.44;4957396;29;2526;-46
2023/10/12 06:45:07;;;;;;;;;;;;;;;17.41;47.74;101794.47;4949272;28;1307;-48
2023/10/12 06:47:57;;;;;;;;;;;;;;;17.15;48.29;101798.75;4957768;28;1255;-48
2023/10/12 06:50:24;;;;;;;;;;;;;;;16.76;49.23;101795.97;4957651;28;1942;-49
2023/10/12 06:52:57;;;;;;;;;;;;;;;16.64;49.62;101798.78;4958027;28;1402;-47
2023/10/12 06:55:28;;;;;;;;;;;;;;;16.47;49.95;101792.47;4957316;29;1334;-47
2023/10/12 06:57:54;;;;;;;;;;;;;;;17.36;47.95;101786.16;4956432;28;967;-50
2023/10/12 07:00:34;;;;;;;;;;;;;;;17.08;48.61;101795.38;4957293;28;1271;-49
2023/10/12 07:03:00;;;;;;;;;;;;;;;16.75;49.24;101794.28;4956218;29;986;-49
2023/10/12 07:05:32;;;;;;;;;;;;;;;16.53;50.03;101785.97;4957328;28;1346;-49
2023/10/12 07:07:58;;;;;;;;;;;;;;;16.45;50.17;101786.38;4955607;29;1184;-46
2023/10/12 07:10:29;;;;;;;;;;;;;;;16.71;49.57;101791.19;4952816;29;1910;-48
2023/10/12 07:12:59;;;;;;;;;;;;;;;17.38;47.64;101785.91;4956919;29;2454;-50
2023/10/12 07:15:40;;;;;;;;;;;;;;;16.84;48.98;101781.78;4957517;28;1283;-53
2023/10/12 07:18:07;;;;;;;;;;;;;;;16.62;49.69;101789.97;4958850;28;1076;-50
2023/10/12 07:23:05;;;;;;;;;;;;;;;16.67;50.01;101781.78;4961471;28;1267;-52
2023/10/12 07:25:35;;;;;;;;;;;;;;;17.42;47.88;101781.56;4960966;28;1314;-50
2023/10/12 07:28:01;;;;;;;;;;;;;;;16.84;49.27;101779.03;4959221;29;1480;-51
2023/10/12 07:30:43;;;;;;;;;;;;;;;16.63;49.62;101783.38;4959406;29;1981;-50
2023/10/12 07:33:08;;;;;;;;;;;;;;;16.43;50.12;101776.44;4958118;29;1193;-51
2023/10/12 07:35:34;;;;;;;;;;;;;;;17.16;48.67;101772.13;4958593;29;1194;-51
2023/10/12 07:40:56;;;;;;;;;;;;;;;16.65;49.80;101767.50;4958240;29;1737;-50
2023/10/12 07:43:25;;;;;;;;;;;;;;;16.58;49.84;101764.09;4959308;29;1244;-49
2023/10/12 07:45:51;;;;;;;;;;;;;;;16.43;50.52;101770.97;4958777;29;1173;-49
2023/10/12 07:48:30;;;;;;;;;;;;;;;17.52;47.70;101767.13;4958991;29;1201;-48
2023/10/12 07:50:56;;;;;;;;;;;;;;;16.86;49.33;101770.56;4958861;29;1335;-49
2023/10/12 07:53:24;;;;;;;;;;;;;;;16.65;49.93;101767.50;4958282;29;1320;-50
2023/10/12 07:55:50;;;;;;;;;;;;;;;16.49;50.37;101762.81;4957367;29;1189;-48
2023/10/12 07:58:18;;;;;;;;;;;;;;;16.36;50.43;101762.06;4957602;29;1157;-49
2023/10/12 08:00:51;;;;;;;;;;;;;;;17.32;48.20;101754.78;4959154;28;1367;-48
2023/10/12 08:03:19;;;;;;;;;;;;;;;17.06;48.79;101762.66;4964978;28;1127;-47
2023/10/12 08:05:56;;;;;;;;;;;;;;;16.71;49.62;101765.66;4967180;28;1397;-50
2023/10/12 08:08:34;;;;;;;;;;;;;;;16.53;50.36;101758.50;4958703;29;1283;-47
2023/10/12 08:11:01;;;;;;;;;;;;;;;16.43;50.24;101765.47;4956538;29;2330;-52
2023/10/12 08:13:26;;;;;;;;;;;;;;;16.36;50.63;101756.56;4959997;29;1149;-50
2023/10/12 08:24:10;;;;;;;;;;;;;;;16.48;50.28;101756.50;4959902;29;1029;-47
2023/10/12 08:31:43;;;;;;;;;;;;;;;17.30;48.53;101740.44;4958354;28;1096;-50
2023/10/12 08:37:17;;;;;;;;;;;;;;;16.62;50.06;101742.44;4949743;28;1077;-48
2023/10/12 08:39:52;;;;;;;;;;;;;;;16.44;50.66;101741.63;4958311;29;1394;-50
2023/10/12 08:45:09;;;;;;;;;;;;;;;17.37;48.25;101735.56;4953326;29;1057;-48
2023/10/12 08:52:31;;;;;;;;;;;;;;;16.51;50.63;101733.19;4959119;29;1127;-49
2023/10/12 08:55:03;;;;;;;;;;;;;;;16.48;50.94;101736.44;4958843;28;1066;-46
2023/10/12 08:57:52;;;;;;;;;;;;;;;17.55;48.15;101728.91;4957630;29;1077;-48
2023/10/12 09:03:00;;;;;;;;;;;;;;;16.67;50.21;101726.88;4957642;29;1364;-51
2023/10/12 09:05:28;;;;;;;;;;;;;;;16.46;50.88;101727.63;4957797;29;1018;-46
2023/10/12 09:08:39;;;;;;;;;;;;;;;17.68;47.95;101724.94;4959149;29;1029;-50
2023/10/12 09:11:02;;;;;;;;;;;;;;;17.03;49.37;101718.38;4948112;29;2319;-47
2023/10/12 09:13:37;;;;;;;;;;;;;;;16.71;50.10;101719.78;4965745;28;1041;-48
2023/10/12 09:16:03;;;;;;;;;;;;;;;16.63;50.52;101716.66;4958965;29;1207;-49
2023/10/12 09:18:47;;;;;;;;;;;;;;;16.76;50.32;101713.56;4958770;29;1046;-50
2023/10/12 09:29:04;;;;;;;;;;;;;;;16.59;50.60;101703.44;4958822;29;1136;-48
2023/10/12 09:36:43;;;;;;;;;;;;;;;17.00;49.94;101692.22;4954011;29;1062;-47
2023/10/12 09:39:13;;;;;;;;;;;;;;;16.76;50.33;101684.19;4958644;29;1022;-46
2023/10/12 09:41:40;;;;;;;;;;;;;;;16.58;50.97;101681.72;4957765;28;2402;-46
2023/10/12 09:44:11;;;;;;;;;;;;;;;16.51;50.97;101678.28;4958346;29;1025;-43
2023/10/12 09:46:37;;;;;;;;;;;;;;;16.73;50.71;101676.44;4954156;29;871;-47
2023/10/12 09:49:06;;;;;;;;;;;;;;;17.43;48.88;101664.97;4958343;29;1902;-47
2023/10/12 09:51:37;;;;;;;;;;;;;;;16.90;50.29;101670.09;4958384;29;1001;-42
2023/10/12 09:54:18;;;;;;;;;;;;;;;16.71;50.83;101664.88;4953574;29;1065;-50
2023/10/12 09:56:47;;;;;;;;;;;;;;;16.53;51.22;101663.22;4939376;29;1084;-44
2023/10/12 09:59:19;;;;;;;;;;;;;;;16.46;51.50;101643.34;4949872;28;1093;-43
2023/10/12 10:01:50;;;;;;;;;;;;;;;17.52;49.10;101648.88;4957059;29;1235;-45
2023/10/12 10:06:51;;;;;;;;;;;;;;;16.75;50.87;101637.75;4957371;29;1102;-47
2023/10/12 10:09:36;;;;;;;;;;;;;;;16.58;51.30;101635.03;4943015;29;1910;-44
2023/10/12 10:12:04;;;;;;;;;;;;;;;16.49;51.45;101640.09;4954859;29;2533;-44
2023/10/12 10:14:37;;;;;;;;;;;;;;;16.37;51.55;101618.25;4957391;28;1299;-43
2023/10/12 10:17:07;;;;;;;;;;;;;;;16.80;51.13;101615.00;4945663;29;1026;-46
2023/10/12 10:19:32;;;;;;;;;;;;;;;17.29;49.61;101617.81;4950291;28;1118;-47
2023/10/12 10:22:37;;;;;;;;;;;;;;;16.82;50.71;101612.84;4956256;29;1022;-45
2023/10/12 10:24:57;;;;;;;;;;;;;;;16.61;51.46;101607.06;4954330;29;1288;-46
2023/10/12 10:27:33;;;;;;;;;;;;;;;16.45;51.60;101605.19;4957544;29;1112;-48
2023/10/12 10:30:00;;;;;;;;;;;;;;;16.38;51.78;101611.69;4945236;29;1964;-45
2023/10/12 10:32:29;;;;;;;;;;;;;;;17.70;48.71;101606.44;4956630;29;1354;-47
2023/10/12 10:34:59;;;;;;;;;;;;;;;17.01;50.50;101605.97;4952075;29;970;-46
2023/10/12 10:37:38;;;;;;;;;;;;;;;16.75;51.10;101602.03;4956215;29;1081;-47
2023/10/12 10:40:09;;;;;;;;;;;;;;;16.56;51.34;101596.00;4947880;29;1408;-46
2023/10/12 10:42:36;;;;;;;;;;;;;;;16.51;51.62;101596.78;4957559;29;2493;-49
2023/10/12 10:45:15;;;;;;;;;;;;;;;16.37;52.12;101590.81;4957568;29;1005;-50
2023/10/12 10:47:49;;;;;;;;;;;;;;;17.41;50.05;101584.69;4945679;29;1085;-50
2023/10/12 10:50:15;;;;;;;;;;;;;;;16.97;50.72;101587.50;4944968;29;1902;-45
2023/10/12 10:52:44;;;;;;;;;;;;;;;16.72;51.55;101581.41;4958167;28;1010;-46
2023/10/12 10:55:11;;;;;;;;;;;;;;;16.50;51.91;101578.63;4948006;29;1085;-46
2023/10/12 10:57:39;;;;;;;;;;;;;;;16.46;51.91;101582.16;4960833;29;1037;-46
2023/10/12 11:00:15;;;;;;;;;;;;;;;17.62;49.31;101569.22;4948583;29;1191;-41
2023/10/12 11:02:41;;;;;;;;;;;;;;;17.00;50.98;101576.84;4961032;29;1158;-44
2023/10/12 11:05:10;;;;;;;;;;;;;;;16.70;51.55;101575.31;4961845;28;1048;-42
2023/10/12 11:07:37;;;;;;;;;;;;;;;16.58;51.71;101561.72;4959401;28;1084;-46
2023/10/12 11:12:31;;;;;;;;;;;;;;;16.50;52.08;101556.66;4950661;29;2257;-46
2023/10/12 11:17:35;;;;;;;;;;;;;;;16.98;51.09;101557.00;4950525;29;1121;-48
2023/10/12 11:20:08;;;;;;;;;;;;;;;16.70;51.82;101556.09;4946337;29;1050;-47
2023/10/12 11:22:34;;;;;;;;;;;;;;;16.56;52.02;101552.06;4948496;29;1099;-48
2023/10/12 11:25:01;;;;;;;;;;;;;;;16.46;52.23;101550.03;4961003;29;1037;-47
2023/10/12 11:27:32;;;;;;;;;;;;;;;17.63;49.77;101543.38;4954461;29;1032;-47
2023/10/12 11:30:00;;;;;;;;;;;;;;;17.01;50.98;101551.03;4954504;29;1879;-45
2023/10/12 11:32:28;;;;;;;;;;;;;;;16.73;51.88;101538.28;4954702;28;1260;-48
2023/10/12 11:34:56;;;;;;;;;;;;;;;16.56;52.27;101533.69;4945079;29;1073;-45
2023/10/12 11:37:23;;;;;;;;;;;;;;;16.48;52.27;101530.53;4972523;28;1233;-47
2023/10/12 11:39:50;;;;;;;;;;;;;;;17.67;49.77;101522.50;4960522;29;1025;-47
2023/10/12 11:42:17;;;;;;;;;;;;;;;17.08;51.23;101517.81;4967632;28;2094;-49
2023/10/12 11:44:43;;;;;;;;;;;;;;;16.73;52.08;101525.41;4965328;28;1290;-46
2023/10/12 11:47:10;;;;;;;;;;;;;;;16.57;52.41;101520.78;4957346;29;1030;-50
2023/10/12 11:49:48;;;;;;;;;;;;;;;16.52;52.28;101521.56;4962865;28;1979;-46
2023/10/12 11:52:17;;;;;;;;;;;;;;;16.88;51.84;101516.50;4960044;28;1515;-47
2023/10/12 11:54:44;;;;;;;;;;;;;;;17.33;50.53;101524.69;4960535;29;1077;-48
2023/10/12 11:57:10;;;;;;;;;;;;;;;16.83;52.10;101518.34;4959954;28;1102;-47
2023/10/12 11:59:36;;;;;;;;;;;;;;;16.64;52.32;101518.69;4949359;28;1343;-49
2023/10/12 12:02:08;;;;;;;;;;;;;;;16.53;52.44;101523.22;4966775;28;1165;-47
2023/10/12 12:04:40;;;;;;;;;;;;;;;16.46;52.61;101513.50;4957592;28;1087;-46
2023/10/12 12:07:10;;;;;;;;;;;;;;;16.35;52.69;101513.34;4960162;29;1358;-46
2023/10/12 12:09:48;;;;;;;;;;;;;;;17.06;51.66;101509.84;4959896;29;1903;-44
2023/10/12 12:12:16;;;;;;;;;;;;;;;17.20;51.29;101498.44;4964831;28;2443;-46
2023/10/12 12:14:48;;;;;;;;;;;;;;;16.73;52.49;101500.69;4962025;28;1422;-46
2023/10/12 12:17:16;;;;;;;;;;;;;;;16.56;52.62;101494.41;4947131;29;1200;-47
2023/10/12 12:19:42;;;;;;;;;;;;;;;16.50;52.95;101500.94;4950326;29;1010;-44
2023/10/12 12:22:11;;;;;;;;;;;;;;;17.38;51.01;101491.75;4955974;29;1152;-49
2023/10/12 12:24:44;;;;;;;;;;;;;;;17.17;51.57;101493.47;4950276;29;1003;-48
2023/10/12 12:27:37;;;;;;;;;;;;;;;16.79;52.46;101486.97;4948330;28;1189;-46
2023/10/12 12:29:57;;;;;;;;;;;;;;;16.58;52.63;101495.00;4960854;28;1902;-43
2023/10/12 12:32:26;;;;;;;;;;;;;;;16.48;53.09;101486.63;4959690;29;1374;-46
2023/10/12 12:34:52;;;;;;;;;;;;;;;17.13;51.81;101482.16;4943299;29;1220;-46
2023/10/12 12:37:17;;;;;;;;;;;;;;;17.29;51.33;101474.88;4940626;29;1009;-45
2023/10/12 12:39:43;;;;;;;;;;;;;;;16.93;52.08;101477.31;4954942;28;1025;-47
2023/10/12 12:42:11;;;;;;;;;;;;;;;16.68;52.54;101470.41;4963806;28;2389;-45
2023/10/12 12:44:37;;;;;;;;;;;;;;;16.58;52.74;101475.78;4959009;29;1048;-43
2023/10/12 12:47:02;;;;;;;;;;;;;;;16.46;53.12;101477.81;4954524;28;1074;-42
2023/10/12 12:49:29;;;;;;;;;;;;;;;17.28;51.75;101474.06;4951179;29;1898;-42
2023/10/12 12:51:57;;;;;;;;;;;;;;;17.15;51.60;101468.16;4940108;29;1056;-43
2023/10/12 12:54:24;;;;;;;;;;;;;;;16.72;52.57;101466.06;4940314;29;1026;-48
2023/10/12 12:56:53;;;;;;;;;;;;;;;16.65;53.00;101468.19;4954221;29;1170;-44
2023/10/12 12:59:23;;;;;;;;;;;;;;;16.51;53.14;101475.13;4951247;29;1005;-47
2023/10/12 13:01:49;;;;;;;;;;;;;;;17.60;50.76;101453.16;4946356;29;1482;-44
2023/10/12 13:04:17;;;;;;;;;;;;;;;17.11;52.00;101467.88;4953433;28;954;-44
2023/10/12 13:06:42;;;;;;;;;;;;;;;16.85;52.70;101453.00;4956299;28;1421;-48
2023/10/12 13:09:27;;;;;;;;;;;;;;;16.95;53.33;101458.63;4953797;28;1983;-46
2023/10/12 13:11:53;;;;;;;;;;;;;;;16.97;53.91;101458.38;4956677;29;2357;-49
2023/10/12 13:14:18;;;;;;;;;;;;;;;16.98;54.02;101451.78;4957567;29;1109;-46
2023/10/12 13:16:44;;;;;;;;;;;;;;;17.00;54.54;101444.94;4938381;29;1136;-47
2023/10/12 13:19:11;;;;;;;;;;;;;;;17.04;54.16;101451.59;4954685;29;1171;-47
2023/10/12 13:21:41;;;;;;;;;;;;;;;16.70;54.56;101438.00;4955726;28;1134;-46
2023/10/12 13:24:08;;;;;;;;;;;;;;;16.87;54.34;101439.81;4958205;29;1069;-49
2023/10/12 13:26:33;;;;;;;;;;;;;;;16.95;54.07;101442.13;4958590;29;1057;-45
2023/10/12 13:29:01;;;;;;;;;;;;;;;16.77;54.65;101430.41;4954626;28;1883;-49
2023/10/12 13:31:28;;;;;;;;;;;;;;;16.60;54.61;101424.19;4949263;28;1238;-45
2023/10/12 13:33:54;;;;;;;;;;;;;;;16.54;54.40;101425.22;4958580;29;1013;-43
2023/10/12 13:36:20;;;;;;;;;;;;;;;17.64;54.63;101425.94;4955778;29;1307;-48
2023/10/12 13:38:46;;;;;;;;;;;;;;;17.20;55.27;101421.50;4958006;29;1100;-48
2023/10/12 13:41:12;;;;;;;;;;;;;;;16.92;54.90;101426.19;4958019;29;2293;-43
2023/10/12 13:43:38;;;;;;;;;;;;;;;16.79;55.01;101421.06;4957290;28;1151;-44
2023/10/12 13:46:12;;;;;;;;;;;;;;;16.67;54.83;101421.22;4957904;29;863;-45
2023/10/12 13:48:38;;;;;;;;;;;;;;;16.53;54.74;101418.06;4946972;28;1303;-43
2023/10/12 13:51:24;;;;;;;;;;;;;;;16.65;55.06;101416.00;4958001;29;1910;-43
2023/10/12 13:53:51;;;;;;;;;;;;;;;17.51;54.24;101418.97;4949794;29;1005;-49
2023/10/12 13:56:17;;;;;;;;;;;;;;;16.99;55.06;101404.81;4951162;28;1191;-45
2023/10/12 13:58:45;;;;;;;;;;;;;;;16.79;54.93;101404.59;4957717;28;1124;-45
2023/10/12 14:01:14;;;;;;;;;;;;;;;16.65;54.78;101402.28;4950434;28;1206;-44
2023/10/12 14:03:50;;;;;;;;;;;;;;;16.60;54.57;101402.22;4956807;29;926;-48
2023/10/12 14:06:16;;;;;;;;;;;;;;;16.52;54.36;101410.91;4956940;28;1279;-48
2023/10/12 14:08:42;;;;;;;;;;;;;;;17.42;54.15;101410.41;4956933;28;1088;-48
2023/10/12 14:11:14;;;;;;;;;;;;;;;17.37;54.14;101416.66;4955955;29;2405;-48
2023/10/12 14:13:39;;;;;;;;;;;;;;;16.92;54.94;101404.22;4944587;29;985;-51
2023/10/12 14:16:09;;;;;;;;;;;;;;;16.80;54.66;101401.56;4944496;29;1066;-48
2023/10/12 14:18:34;;;;;;;;;;;;;;;16.68;54.62;101407.25;4957663;28;1117;-48
2023/10/12 14:21:00;;;;;;;;;;;;;;;16.62;54.42;101401.94;4959095;28;1346;-48
2023/10/12 14:23:26;;;;;;;;;;;;;;;16.48;54.42;101401.53;4963535;28;1069;-48
2023/10/12 14:25:52;;;;;;;;;;;;;;;16.43;54.07;101396.81;4951889;29;1292;-49
2023/10/12 14:28:18;;;;;;;;;;;;;;;17.56;53.87;101400.59;4945905;29;995;-45
2023/10/12 14:30:46;;;;;;;;;;;;;;;17.09;54.34;101393.91;4944966;29;1992;-49
2023/10/12 14:33:15;;;;;;;;;;;;;;;16.82;54.50;101398.59;4957814;29;1425;-49
2023/10/12 14:35:41;;;;;;;;;;;;;;;16.65;54.56;101390.44;4955467;29;1041;-50
2023/10/12 14:38:07;;;;;;;;;;;;;;;16.55;54.40;101396.66;4957746;29;982;-46
2023/10/12 14:40:33;;;;;;;;;;;;;;;16.52;54.16;101394.44;4944381;29;1066;-47
2023/10/12 14:43:11;;;;;;;;;;;;;;;16.92;54.77;101393.22;4949364;29;2700;-48
2023/10/12 14:45:48;;;;;;;;;;;;;;;17.25;53.95;101396.78;4954609;29;1116;-50
2023/10/12 14:48:16;;;;;;;;;;;;;;;16.80;54.59;101407.06;4946812;29;1089;-50
2023/10/12 14:50:45;;;;;;;;;;;;;;;16.68;54.60;101399.00;4955828;29;1902;-48
2023/10/12 14:53:16;;;;;;;;;;;;;;;16.55;54.39;101404.88;4957717;29;1033;-49
2023/10/12 14:55:48;;;;;;;;;;;;;;;16.52;54.25;101394.44;4944696;29;1140;-49
2023/10/12 14:58:15;;;;;;;;;;;;;;;16.47;54.18;101408.13;4944484;29;1258;-44
2023/10/12 15:00:44;;;;;;;;;;;;;;;17.63;53.32;101392.13;4953084;29;1087;-50
2023/10/12 15:03:09;;;;;;;;;;;;;;;17.02;54.40;101397.97;4957391;29;1113;-49
2023/10/12 15:05:38;;;;;;;;;;;;;;;16.70;54.67;101399.56;4957820;28;1323;-51
2023/10/12 15:08:07;;;;;;;;;;;;;;;16.64;54.23;101399.78;4954718;28;1001;-50
2023/10/12 15:10:45;;;;;;;;;;;;;;;16.51;54.19;101398.25;4948075;29;1911;-51
2023/10/12 15:13:14;;;;;;;;;;;;;;;16.56;54.70;101407.41;4948152;29;1030;-54